Time;durP1;ratioP1;P1;durP2;ratioP2;P2;SDS_P1;SDS_P2;PMS_P1;PMS_P2;Temp;Humidity;BMP_temperature;BMP_pressure;BME280_temperature;BME280_humidity;BME280_pressure;Samples;Min_cycle;Max_cycle;Signal;HPM_P1;HPM_P2
2022/09/19 00:00:10;;;;;;;1.70;1.53;;;;;;;10.53;100.00;96096.03;5036407;28;20224;-70
2022/09/19 00:02:36;;;;;;;0.70;0.70;;;;;;;10.53;100.00;96102.13;5033879;28;20213;-70
2022/09/19 00:05:10;;;;;;;2.03;0.53;;;;;;;10.50;100.00;96107.75;5037207;28;20632;-70
2022/09/19 00:07:36;;;;;;;1.07;0.77;;;;;;;10.51;100.00;96116.47;5037025;28;20288;-70
2022/09/19 00:10:03;;;;;;;0.90;0.60;;;;;;;10.51;100.00;96116.47;5036823;28;20417;-70
2022/09/19 00:12:29;;;;;;;3.30;0.70;;;;;;;10.47;100.00;96121.28;5036501;28;20209;-70
2022/09/19 00:14:57;;;;;;;0.73;0.60;;;;;;;10.54;100.00;96116.13;5036521;28;20237;-70
2022/09/19 00:17:24;;;;;;;0.43;0.43;;;;;;;10.41;100.00;96119.38;5036761;28;20201;-70
2022/09/19 00:19:51;;;;;;;0.40;0.40;;;;;;;10.28;100.00;96135.97;5037131;28;20323;-68
2022/09/19 00:22:17;;;;;;;0.90;0.90;;;;;;;10.09;100.00;96144.34;5037176;28;20212;-68
2022/09/19 00:24:46;;;;;;;0.60;0.50;;;;;;;10.05;100.00;96153.56;5036736;28;20220;-69
2022/09/19 00:27:15;;;;;;;2.23;0.93;;;;;;;10.02;100.00;96151.31;5037020;28;20212;-68
2022/09/19 00:29:42;;;;;;;3.77;0.80;;;;;;;10.03;100.00;96159.03;5037263;28;20240;-68
2022/09/19 00:32:12;;;;;;;0.80;0.80;;;;;;;9.95;100.00;96145.91;5036519;28;20197;-68
2022/09/19 00:34:39;;;;;;;0.53;0.50;;;;;;;9.96;100.00;96157.25;5036798;28;20212;-68
2022/09/19 00:37:06;;;;;;;0.57;0.57;;;;;;;9.82;100.00;96161.41;5036247;28;20205;-68
2022/09/19 00:39:33;;;;;;;1.30;0.77;;;;;;;9.88;100.00;96149.41;5037082;28;20256;-68
2022/09/19 00:41:59;;;;;;;0.50;0.50;;;;;;;9.75;100.00;96147.34;5036196;28;20205;-68
2022/09/19 00:44:53;;;;;;;0.93;0.80;;;;;;;9.96;100.00;96144.09;5036260;28;20674;-68
2022/09/19 00:47:25;;;;;;;0.80;0.50;;;;;;;9.86;100.00;96146.94;5034987;28;20212;-68
2022/09/19 00:49:54;;;;;;;0.40;0.40;;;;;;;9.73;100.00;96146.69;5036411;28;20248;-68
2022/09/19 00:52:29;;;;;;;1.30;0.80;;;;;;;9.81;100.00;96161.59;5035533;28;20205;-68
2022/09/19 00:54:56;;;;;;;3.57;0.67;;;;;;;9.68;100.00;96163.97;5036792;28;20691;-69
2022/09/19 00:57:28;;;;;;;0.70;0.70;;;;;;;9.63;100.00;96171.56;5036079;28;20968;-68
2022/09/19 00:59:55;;;;;;;0.80;0.60;;;;;;;9.64;100.00;96173.22;5035756;28;20233;-68
2022/09/19 01:02:28;;;;;;;0.40;0.40;;;;;;;9.62;100.00;96179.63;5032733;28;20201;-69
2022/09/19 01:04:55;;;;;;;1.70;0.40;;;;;;;9.54;100.00;96175.22;5037355;28;20205;-68
2022/09/19 01:07:33;;;;;;;0.77;0.70;;;;;;;9.55;100.00;96173.44;5036230;28;20205;-68
2022/09/19 01:10:07;;;;;;;0.50;0.50;;;;;;;9.61;100.00;96178.00;5036148;28;20224;-68
2022/09/19 01:12:46;;;;;;;0.47;0.47;;;;;;;9.64;100.00;96182.94;5039621;28;20196;-68
2022/09/19 01:15:29;;;;;;;0.40;0.40;;;;;;;9.64;100.00;96178.47;5043000;28;20197;-69
2022/09/19 01:17:59;;;;;;;0.60;0.40;;;;;;;9.53;100.00;96181.47;5043191;28;20228;-70
2022/09/19 01:24:04;;;;;;;0.30;0.30;;;;;;;9.68;100.00;96191.09;5038676;28;20200;-70
2022/09/19 01:26:43;;;;;;;0.30;0.30;;;;;;;9.41;100.00;96197.84;5043004;28;20273;-70
2022/09/19 01:29:16;;;;;;;0.40;0.40;;;;;;;9.35;100.00;96203.75;5042657;28;20218;-70
2022/09/19 01:31:46;;;;;;;0.60;0.60;;;;;;;9.31;100.00;96207.72;5042096;28;20416;-70
2022/09/19 01:34:16;;;;;;;1.00;0.40;;;;;;;9.19;100.00;96212.53;5041904;28;20227;-70
2022/09/19 01:36:47;;;;;;;0.40;0.40;;;;;;;9.14;100.00;96220.09;5042950;28;20251;-70
2022/09/19 01:39:17;;;;;;;0.27;0.27;;;;;;;9.07;100.00;96215.69;5042398;28;20252;-70
2022/09/19 01:41:48;;;;;;;0.40;0.40;;;;;;;9.04;100.00;96226.53;5042520;28;21276;-71
2022/09/19 01:44:19;;;;;;;0.73;0.40;;;;;;;8.98;100.00;96232.47;5041677;28;20326;-71
2022/09/19 01:46:53;;;;;;;0.30;0.30;;;;;;;8.94;100.00;96231.16;5043079;28;20567;-70
2022/09/19 01:49:34;;;;;;;0.40;0.40;;;;;;;8.89;100.00;96222.13;5041710;28;20901;-70
2022/09/19 01:52:09;;;;;;;0.20;0.20;;;;;;;8.82;100.00;96227.25;5042734;28;20209;-69
2022/09/19 01:54:43;;;;;;;0.30;0.30;;;;;;;8.75;100.00;96226.25;5041710;28;20223;-70
2022/09/19 01:57:22;;;;;;;0.20;0.20;;;;;;;8.78;100.00;96231.19;5042445;28;20203;-70
2022/09/19 02:00:02;;;;;;;1.10;0.40;;;;;;;8.64;100.00;96223.13;5041835;28;20239;-69
2022/09/19 02:02:38;;;;;;;0.30;0.30;;;;;;;8.62;100.00;96231.19;5039459;28;20197;-71
2022/09/19 02:05:09;;;;;;;0.93;0.40;;;;;;;8.53;100.00;96232.19;5041469;28;20212;-69
2022/09/19 02:07:43;;;;;;;0.50;0.30;;;;;;;8.52;100.00;96240.22;5042391;28;20665;-70
2022/09/19 02:10:17;;;;;;;0.43;0.43;;;;;;;8.56;100.00;96236.28;5041790;28;20196;-69
2022/09/19 02:12:45;;;;;;;0.40;0.40;;;;;;;8.45;100.00;96241.03;5041159;28;20216;-70
2022/09/19 02:15:15;;;;;;;3.43;0.50;;;;;;;8.47;100.00;96237.28;5042963;28;20197;-70
2022/09/19 02:17:50;;;;;;;2.63;0.40;;;;;;;8.45;100.00;96236.59;5038441;28;20205;-69
2022/09/19 02:20:23;;;;;;;0.70;0.40;;;;;;;8.46;100.00;96226.94;5042059;28;20310;-71
2022/09/19 02:22:54;;;;;;;1.63;0.67;;;;;;;8.40;100.00;96235.47;5040319;28;20206;-71
2022/09/19 02:25:28;;;;;;;3.93;2.13;;;;;;;8.31;100.00;96236.44;5038355;28;20614;-70
2022/09/19 02:27:59;;;;;;;10.97;3.40;;;;;;;8.41;100.00;96229.22;5039180;28;20275;-71
2022/09/19 02:30:27;;;;;;;21.67;7.77;;;;;;;8.38;100.00;96232.19;5039508;28;20193;-71
2022/09/19 02:32:54;;;;;;;11.30;5.30;;;;;;;8.33;100.00;96231.88;5037505;28;20205;-70
2022/09/19 02:35:38;;;;;;;4.73;1.77;;;;;;;8.32;100.00;96241.53;5038227;28;20235;-70
2022/09/19 02:38:13;;;;;;;0.50;0.50;;;;;;;8.39;100.00;96239.06;5038846;28;20303;-71
2022/09/19 02:40:49;;;;;;;1.13;1.13;;;;;;;8.35;100.00;96237.75;5038600;28;20322;-69
2022/09/19 02:43:20;;;;;;;2.80;2.33;;;;;;;8.28;100.00;96253.34;5037864;28;20192;-70
2022/09/19 02:45:54;;;;;;;1.23;0.80;;;;;;;8.25;100.00;96258.09;5038170;28;20665;-68
2022/09/19 02:48:30;;;;;;;1.80;1.60;;;;;;;8.26;100.00;96257.94;5038941;28;20221;-68
2022/09/19 02:51:03;;;;;;;0.70;0.70;;;;;;;8.27;100.00;96261.38;5038290;28;20197;-68
2022/09/19 02:53:38;;;;;;;0.40;0.40;;;;;;;8.29;100.00;96256.81;5038421;28;20583;-68
2022/09/19 02:56:06;;;;;;;0.47;0.47;;;;;;;8.12;100.00;96260.31;5038353;28;20309;-68
2022/09/19 02:58:39;;;;;;;0.60;0.43;;;;;;;8.22;100.00;96261.03;5039087;28;20256;-69
2022/09/19 03:01:13;;;;;;;0.87;0.53;;;;;;;8.24;100.00;96275.66;5034899;28;20221;-68
2022/09/19 03:06:35;;;;;;;2.80;0.90;;;;;;;8.23;100.00;96275.81;5037570;28;20224;-68
2022/09/19 03:09:03;;;;;;;2.93;0.60;;;;;;;8.15;100.00;96278.44;5038418;28;20319;-68
2022/09/19 03:11:34;;;;;;;1.27;0.80;;;;;;;8.17;100.00;96286.94;5038044;28;20198;-68
2022/09/19 03:14:01;;;;;;;0.90;0.80;;;;;;;8.16;100.00;96286.13;5037672;28;20212;-71
2022/09/19 03:16:34;;;;;;;1.23;1.10;;;;;;;8.15;100.00;96278.44;5038112;28;20201;-71
2022/09/19 03:19:02;;;;;;;7.57;0.90;;;;;;;8.07;100.00;96276.56;5038976;28;20282;-70
2022/09/19 03:21:29;;;;;;;1.63;0.70;;;;;;;8.04;100.00;96276.06;5037596;28;20229;-70
2022/09/19 03:23:58;;;;;;;1.87;0.47;;;;;;;7.98;100.00;96285.41;5037119;28;20209;-70
2022/09/19 03:26:30;;;;;;;0.40;0.40;;;;;;;8.11;100.00;96283.13;5038512;28;20231;-71
2022/09/19 03:28:57;;;;;;;1.90;0.57;;;;;;;7.97;100.00;96278.50;5037829;28;20586;-69
2022/09/19 03:31:25;;;;;;;0.93;0.43;;;;;;;7.92;100.00;96277.34;5037292;28;20205;-71
2022/09/19 03:33:55;;;;;;;2.30;0.40;;;;;;;8.03;100.00;96274.41;5036830;28;20220;-70
2022/09/19 03:36:22;;;;;;;1.03;0.50;;;;;;;7.88;100.00;96273.41;5038771;28;20201;-69
2022/09/19 03:38:49;;;;;;;1.13;0.40;;;;;;;7.87;100.00;96280.44;5039866;28;20220;-69
2022/09/19 03:41:18;;;;;;;3.50;0.60;;;;;;;7.74;100.00;96273.19;5040347;28;20336;-69
2022/09/19 03:43:45;;;;;;;0.57;0.47;;;;;;;7.69;100.00;96272.84;5037075;28;20208;-71
2022/09/19 03:46:13;;;;;;;0.60;0.40;;;;;;;7.72;100.00;96268.09;5037388;28;20216;-70
2022/09/19 03:48:40;;;;;;;1.07;0.50;;;;;;;7.68;100.00;96269.41;5036485;28;20241;-70
2022/09/19 03:51:08;;;;;;;0.83;0.40;;;;;;;7.73;100.00;96277.63;5037052;28;20284;-69
2022/09/19 03:53:34;;;;;;;1.20;0.50;;;;;;;7.81;100.00;96279.47;5037021;28;20201;-70
2022/09/19 03:56:01;;;;;;;5.23;0.80;;;;;;;7.80;100.00;96278.63;5037727;28;20636;-71
2022/09/19 03:58:30;;;;;;;0.63;0.60;;;;;;;7.66;100.00;96292.34;5038001;28;20221;-69
2022/09/19 04:00:57;;;;;;;3.67;1.27;;;;;;;7.77;100.00;96301.75;5039124;28;20253;-69
2022/09/19 04:03:24;;;;;;;5.27;1.10;;;;;;;7.70;100.00;96304.19;5036797;28;20201;-69
2022/09/19 04:05:50;;;;;;;1.57;1.00;;;;;;;7.54;100.00;96317.19;5039174;28;20239;-69
2022/09/19 04:08:18;;;;;;;3.10;1.17;;;;;;;7.77;100.00;96305.16;5039615;28;20244;-69
2022/09/19 04:10:45;;;;;;;4.03;1.30;;;;;;;7.73;100.00;96314.34;5039688;28;20233;-69
2022/09/19 04:13:13;;;;;;;2.97;1.20;;;;;;;7.73;100.00;96316.16;5038995;28;20218;-69
2022/09/19 04:15:40;;;;;;;1.63;1.07;;;;;;;7.53;100.00;96317.34;5039048;28;20213;-69
2022/09/19 04:18:07;;;;;;;8.00;0.80;;;;;;;7.59;100.00;96320.19;5039157;28;20225;-69
2022/09/19 04:20:33;;;;;;;5.27;1.57;;;;;;;7.61;100.00;96320.00;5040260;28;20205;-69
2022/09/19 04:23:01;;;;;;;5.70;1.30;;;;;;;7.73;100.00;96314.34;5036687;28;20252;-69
2022/09/19 04:25:32;;;;;;;1.50;0.67;;;;;;;7.79;100.00;96324.22;5039334;28;20202;-69
2022/09/19 04:28:03;;;;;;;4.43;1.00;;;;;;;7.65;100.00;96330.03;5038930;28;20255;-69
2022/09/19 04:30:30;;;;;;;2.80;1.10;;;;;;;7.71;100.00;96329.41;5039357;28;20744;-69
2022/09/19 04:32:58;;;;;;;0.97;0.70;;;;;;;7.80;100.00;96331.06;5038683;28;20212;-68
2022/09/19 04:35:25;;;;;;;4.60;0.93;;;;;;;7.84;100.00;96326.34;5040661;28;20212;-69
2022/09/19 04:37:51;;;;;;;5.20;1.60;;;;;;;7.79;100.00;96329.47;5038263;28;21058;-69
2022/09/19 04:40:18;;;;;;;5.23;1.20;;;;;;;7.87;100.00;96337.34;5038962;28;20200;-69
2022/09/19 04:42:46;;;;;;;4.27;1.40;;;;;;;7.95;100.00;96340.00;5039435;28;20229;-69
2022/09/19 04:45:20;;;;;;;3.67;0.80;;;;;;;7.96;100.00;96341.66;5038875;28;20217;-69
2022/09/19 04:47:47;;;;;;;5.13;0.87;;;;;;;7.94;100.00;96340.97;5037572;28;20294;-70
2022/09/19 04:50:14;;;;;;;2.57;0.83;;;;;;;8.09;100.00;96347.25;5036517;28;20777;-69
2022/09/19 04:52:40;;;;;;;7.40;1.10;;;;;;;8.06;100.00;96343.16;5036366;28;20202;-69
2022/09/19 04:55:09;;;;;;;5.57;1.17;;;;;;;8.12;100.00;96346.94;5035814;28;20209;-69
2022/09/19 04:57:35;;;;;;;2.63;1.03;;;;;;;8.12;100.00;96339.06;5036635;28;20237;-71
2022/09/19 05:00:05;;;;;;;3.87;0.90;;;;;;;8.21;100.00;96340.75;5036498;28;21084;-70
2022/09/19 05:02:31;;;;;;;4.27;1.13;;;;;;;8.11;100.00;96337.44;5031849;28;20594;-69
2022/09/19 05:04:59;;;;;;;5.90;1.50;;;;;;;8.17;100.00;96340.28;5035339;28;21293;-69
2022/09/19 05:07:28;;;;;;;2.27;0.90;;;;;;;8.15;100.00;96344.84;5036493;28;20197;-70
2022/09/19 05:09:54;;;;;;;3.03;0.73;;;;;;;8.20;100.00;96347.00;5035886;28;20235;-70
2022/09/19 05:12:22;;;;;;;2.97;0.73;;;;;;;8.08;100.00;96346.47;5035360;28;20201;-70
2022/09/19 05:14:49;;;;;;;1.27;0.90;;;;;;;8.22;100.00;96359.00;5036134;28;21099;-68
2022/09/19 05:17:17;;;;;;;2.20;0.50;;;;;;;8.20;100.00;96365.41;5036611;28;20561;-68
2022/09/19 05:19:44;;;;;;;1.27;1.13;;;;;;;8.29;100.00;96369.69;5035690;28;20225;-71
2022/09/19 05:22:11;;;;;;;5.37;1.30;;;;;;;8.30;100.00;96384.44;5036938;28;20236;-69
2022/09/19 05:24:38;;;;;;;4.67;0.93;;;;;;;8.29;100.00;96386.25;5039531;28;20197;-69
2022/09/19 05:27:05;;;;;;;3.87;1.10;;;;;;;8.45;100.00;96377.59;5037546;28;20225;-69
2022/09/19 05:29:39;;;;;;;4.43;1.57;;;;;;;8.46;100.00;96385.31;5039700;28;20287;-69
2022/09/19 05:32:06;;;;;;;3.70;2.17;;;;;;;8.46;100.00;96381.88;5039724;28;20570;-69
2022/09/19 05:34:34;;;;;;;3.23;1.10;;;;;;;8.54;100.00;96383.53;5040388;28;20232;-69
2022/09/19 05:37:00;;;;;;;8.07;1.50;;;;;;;8.48;100.00;96391.22;5040818;28;20204;-69
2022/09/19 05:39:26;;;;;;;2.87;1.17;;;;;;;8.62;100.00;96394.03;5041409;28;20228;-69
2022/09/19 05:41:53;;;;;;;10.87;1.60;;;;;;;8.64;100.00;96401.75;5040713;28;20244;-69
2022/09/19 05:44:19;;;;;;;5.53;1.33;;;;;;;8.58;100.00;96402.41;5040525;28;20201;-69
2022/09/19 05:46:46;;;;;;;10.13;1.43;;;;;;;8.68;100.00;96408.31;5041368;28;20201;-69
2022/09/19 05:49:12;;;;;;;5.43;1.00;;;;;;;8.64;100.00;96410.47;5041115;28;20233;-69
2022/09/19 05:51:40;;;;;;;3.53;1.20;;;;;;;8.69;100.00;96408.19;5040663;28;20202;-69
2022/09/19 05:54:05;;;;;;;4.53;1.10;;;;;;;8.57;100.00;96417.34;5041483;28;20208;-69
2022/09/19 05:56:32;;;;;;;0.93;0.70;;;;;;;8.55;100.00;96419.31;5041315;28;20201;-69
2022/09/19 05:58:59;;;;;;;2.60;0.87;;;;;;;8.66;100.00;96420.81;5043433;28;20732;-69
2022/09/19 06:01:25;;;;;;;1.50;0.60;;;;;;;8.58;100.00;96429.50;5045027;28;20228;-69
2022/09/19 06:03:51;;;;;;;3.13;1.10;;;;;;;8.67;100.00;96433.78;5043085;28;20588;-69
2022/09/19 06:06:19;;;;;;;2.00;1.30;;;;;;;8.71;100.00;96442.97;5039984;28;20197;-68
2022/09/19 06:08:55;;;;;;;2.00;0.87;;;;;;;8.78;100.00;96441.38;5039204;28;20603;-69
2022/09/19 06:11:22;;;;;;;4.00;1.00;;;;;;;8.72;100.00;96444.63;5039500;28;20407;-68
2022/09/19 06:16:32;;;;;;;6.40;0.70;;;;;;;8.75;100.00;96449.56;5042386;28;20692;-69
2022/09/19 06:19:00;;;;;;;1.70;0.80;;;;;;;8.71;100.00;96453.50;5044590;28;20221;-69
2022/09/19 06:21:26;;;;;;;8.30;1.20;;;;;;;8.68;100.00;96459.06;5045051;28;20228;-69
2022/09/19 06:23:54;;;;;;;1.93;0.80;;;;;;;8.70;100.00;96454.47;5044950;28;20605;-69
2022/09/19 06:26:21;;;;;;;4.77;1.10;;;;;;;8.69;100.00;96452.84;5044911;28;20205;-69
2022/09/19 06:28:47;;;;;;;3.00;0.90;;;;;;;8.78;100.00;96454.50;5044598;28;20332;-69
2022/09/19 06:31:14;;;;;;;3.20;0.77;;;;;;;8.84;100.00;96451.22;5044639;28;20205;-69
2022/09/19 06:33:42;;;;;;;2.00;0.80;;;;;;;8.88;100.00;96441.22;5042084;28;20681;-69
2022/09/19 06:36:10;;;;;;;2.07;0.80;;;;;;;8.85;100.00;96447.63;5045634;28;20205;-69
2022/09/19 06:38:40;;;;;;;6.80;0.90;;;;;;;8.89;100.00;96443.69;5045389;28;20229;-69
2022/09/19 06:41:09;;;;;;;5.87;0.90;;;;;;;8.97;100.00;96437.63;5044069;28;20680;-69
2022/09/19 06:43:36;;;;;;;4.03;0.87;;;;;;;8.96;100.00;96436.81;5043983;28;20216;-69
2022/09/19 06:46:03;;;;;;;6.83;0.73;;;;;;;8.99;100.00;96444.34;5043807;28;20209;-69
2022/09/19 06:48:30;;;;;;;0.97;0.37;;;;;;;9.09;100.00;96445.84;5042797;28;20229;-69
2022/09/19 06:50:56;;;;;;;1.47;0.90;;;;;;;9.09;100.00;96450.28;5041924;28;20201;-69
2022/09/19 06:53:23;;;;;;;4.57;1.13;;;;;;;9.15;100.00;96455.72;5042021;28;20204;-69
2022/09/19 06:55:50;;;;;;;8.50;1.00;;;;;;;9.16;100.00;96456.53;5042849;28;21290;-69
2022/09/19 06:58:19;;;;;;;4.23;0.87;;;;;;;9.13;100.00;96456.88;5042369;28;20225;-69
2022/09/19 07:00:45;;;;;;;3.20;1.73;;;;;;;9.02;100.00;96478.19;5042767;28;20211;-69
2022/09/19 07:03:15;;;;;;;4.13;0.80;;;;;;;9.07;100.00;96468.00;5043117;28;20233;-69
2022/09/19 07:05:45;;;;;;;6.87;2.10;;;;;;;9.22;100.00;96466.41;5040500;28;20634;-69
2022/09/19 07:08:13;;;;;;;17.63;7.07;;;;;;;9.23;100.00;96475.94;5037076;28;20224;-68
2022/09/19 07:10:40;;;;;;;7.27;2.63;;;;;;;9.17;100.00;96473.94;5037275;28;20209;-69
2022/09/19 07:13:07;;;;;;;7.63;1.80;;;;;;;9.24;100.00;96480.19;5036676;28;20212;-69
2022/09/19 07:15:36;;;;;;;4.63;1.70;;;;;;;9.52;100.00;96494.69;5038556;28;20201;-69
2022/09/19 07:18:08;;;;;;;4.27;2.57;;;;;;;9.41;100.00;96498.47;5037739;28;20225;-68
2022/09/19 07:20:36;;;;;;;5.73;1.50;;;;;;;9.51;100.00;96504.38;5037870;28;20207;-68
2022/09/19 07:23:04;;;;;;;6.47;1.63;;;;;;;9.57;100.00;96508.16;5036884;28;20239;-68
2022/09/19 07:25:32;;;;;;;2.57;1.47;;;;;;;9.47;100.00;96503.06;5037985;28;20197;-69
2022/09/19 07:28:00;;;;;;;3.43;1.40;;;;;;;9.45;100.00;96504.22;5036198;28;20235;-69
2022/09/19 07:30:27;;;;;;;2.07;1.00;;;;;;;9.38;100.00;96509.31;5036910;28;20208;-69
2022/09/19 07:32:57;;;;;;;5.70;1.37;;;;;;;9.52;100.00;96510.47;5038422;28;20201;-69
2022/09/19 07:35:24;;;;;;;6.97;1.30;;;;;;;9.46;100.00;96516.41;5039010;28;20206;-69
2022/09/19 07:37:51;;;;;;;12.20;1.77;;;;;;;9.55;100.00;96523.31;5035087;28;20666;-70
2022/09/19 07:40:18;;;;;;;4.13;1.47;;;;;;;9.50;100.00;96528.22;5037606;28;20949;-71
2022/09/19 07:42:44;;;;;;;8.27;2.03;;;;;;;9.58;100.00;96530.88;5036734;28;20246;-70
2022/09/19 07:45:11;;;;;;;14.00;2.83;;;;;;;9.75;100.00;96535.97;5034139;28;20201;-70
2022/09/19 07:47:43;;;;;;;3.50;1.83;;;;;;;9.88;100.00;96539.75;5037864;28;20254;-70
2022/09/19 07:50:13;;;;;;;5.23;1.03;;;;;;;9.86;100.00;96544.38;5037149;28;20205;-70
2022/09/19 07:52:40;;;;;;;3.50;1.20;;;;;;;9.75;100.00;96549.94;5036508;28;20193;-70
2022/09/19 07:55:09;;;;;;;11.33;3.00;;;;;;;9.94;100.00;96560.16;5037162;28;20212;-69
2022/09/19 07:57:36;;;;;;;6.20;1.20;;;;;;;9.88;100.00;96566.06;5037506;28;20201;-71
2022/09/19 08:00:04;;;;;;;5.43;1.83;;;;;;;10.05;100.00;96567.72;5037099;28;20224;-69
2022/09/19 08:02:30;;;;;;;5.70;1.70;;;;;;;10.00;100.00;96572.66;5036622;28;20727;-70
2022/09/19 08:04:57;;;;;;;4.37;1.90;;;;;;;10.12;100.00;96567.88;5036927;28;20556;-70
2022/09/19 08:07:25;;;;;;;7.37;2.50;;;;;;;10.21;100.00;96575.63;5037082;28;20212;-71
2022/09/19 08:09:52;;;;;;;6.77;3.10;;;;;;;10.21;100.00;96577.41;5036274;28;20228;-70
2022/09/19 08:12:18;;;;;;;10.03;3.30;;;;;;;10.12;100.00;96584.53;5036876;28;20228;-70
2022/09/19 08:14:45;;;;;;;2.93;1.47;;;;;;;10.00;100.00;96580.56;5035764;28;20205;-70
2022/09/19 08:17:11;;;;;;;3.30;1.53;;;;;;;10.01;100.00;96591.94;5037469;28;20205;-70
2022/09/19 08:19:38;;;;;;;7.47;2.50;;;;;;;10.13;100.00;96594.06;5037644;28;20228;-69
2022/09/19 08:22:05;;;;;;;3.33;1.63;;;;;;;10.12;100.00;96589.78;5035862;28;20224;-70
2022/09/19 08:24:33;;;;;;;3.27;1.80;;;;;;;10.15;100.00;96593.91;5036587;28;20559;-69
2022/09/19 08:26:59;;;;;;;11.97;2.07;;;;;;;10.09;100.00;96589.28;5036738;28;20205;-70
2022/09/19 08:29:27;;;;;;;4.57;2.03;;;;;;;10.24;100.00;96591.09;5037167;28;20228;-69
2022/09/19 08:31:53;;;;;;;3.03;1.57;;;;;;;10.20;99.62;96599.50;5040363;28;20209;-69
2022/09/19 08:34:20;;;;;;;7.83;2.10;;;;;;;10.24;100.00;96592.91;5043133;28;20201;-70
2022/09/19 08:36:46;;;;;;;3.03;1.07;;;;;;;10.26;100.00;96594.38;5042585;28;20216;-70
2022/09/19 08:39:13;;;;;;;10.33;2.33;;;;;;;10.37;100.00;96594.88;5043950;28;20232;-70
2022/09/19 08:41:55;;;;;;;3.77;1.73;;;;;;;10.52;100.00;96602.91;5042601;28;20608;-70
2022/09/19 08:44:35;;;;;;;9.67;1.50;;;;;;;10.62;100.00;96599.06;5044024;28;21106;-70
2022/09/19 08:47:08;;;;;;;2.93;1.20;;;;;;;10.61;98.89;96607.97;5043628;28;20196;-70
2022/09/19 08:49:39;;;;;;;4.13;0.90;;;;;;;10.66;99.22;96605.66;5042809;28;20318;-70
2022/09/19 08:52:10;;;;;;;7.90;2.03;;;;;;;10.65;99.16;96608.47;5044187;28;20208;-70
2022/09/19 08:54:41;;;;;;;12.23;2.63;;;;;;;10.79;98.78;96611.22;5042388;28;20213;-69
2022/09/19 08:57:14;;;;;;;5.60;1.17;;;;;;;10.81;98.27;96601.34;5043207;28;20247;-70
2022/09/19 08:59:41;;;;;;;0.87;0.83;;;;;;;10.69;97.67;96612.41;5044010;28;20228;-69
2022/09/19 09:02:26;;;;;;;11.80;1.97;;;;;;;10.98;98.60;96614.31;5043787;28;20246;-70
2022/09/19 09:04:54;;;;;;;7.83;2.17;;;;;;;10.94;97.81;96625.34;5043856;28;20288;-70
2022/09/19 09:07:32;;;;;;;16.60;4.23;;;;;;;11.10;97.35;96631.41;5045365;28;20201;-70
2022/09/19 09:10:08;;;;;;;15.70;2.17;;;;;;;11.05;96.64;96627.63;5044740;28;20579;-70
2022/09/19 09:12:45;;;;;;;2.00;0.60;;;;;;;10.93;97.65;96635.09;5041428;28;20208;-70
2022/09/19 09:15:21;;;;;;;4.07;1.30;;;;;;;11.10;97.98;96630.59;5041375;28;20221;-69
2022/09/19 09:18:03;;;;;;;2.60;1.00;;;;;;;11.11;97.17;96630.41;5035801;28;20223;-70
2022/09/19 09:20:43;;;;;;;2.67;1.27;;;;;;;11.15;96.25;96629.06;5036754;28;20243;-70
2022/09/19 09:23:15;;;;;;;2.40;1.10;;;;;;;11.04;96.36;96639.16;5034555;28;20225;-69
2022/09/19 09:25:46;;;;;;;2.30;1.07;;;;;;;10.92;96.21;96626.50;5036409;28;20315;-69
2022/09/19 09:28:18;;;;;;;2.20;1.00;;;;;;;10.99;96.85;96629.13;5035697;28;20229;-70
2022/09/19 09:30:49;;;;;;;1.03;0.60;;;;;;;11.02;96.44;96627.94;5035880;28;20670;-69
2022/09/19 09:33:23;;;;;;;2.57;0.97;;;;;;;10.93;96.00;96624.53;5037749;28;20197;-69
2022/09/19 09:35:55;;;;;;;5.97;1.90;;;;;;;11.07;97.36;96629.09;5040699;28;20215;-69
2022/09/19 09:38:27;;;;;;;10.70;1.60;;;;;;;11.17;96.10;96619.16;5040278;28;20322;-70
2022/09/19 09:44:01;;;;;;;10.07;2.13;;;;;;;11.23;97.00;96629.03;5039595;28;20359;-70
2022/09/19 09:46:36;;;;;;;2.37;1.23;;;;;;;11.19;95.61;96633.00;5040349;28;20243;-69
2022/09/19 09:49:02;;;;;;;6.23;1.13;;;;;;;11.07;96.10;96633.53;5047273;28;20236;-70
2022/09/19 09:51:41;;;;;;;2.90;1.00;;;;;;;11.26;95.51;96636.59;5048704;28;20204;-70
2022/09/19 09:57:11;;;;;;;7.70;1.53;;;;;;;11.37;95.43;96633.59;5047285;28;20252;-70
2022/09/19 10:05:33;;;;;;;7.47;1.53;;;;;;;11.79;95.21;96629.59;5039060;28;20208;-72
2022/09/19 10:08:14;;;;;;;7.27;3.03;;;;;;;12.09;93.62;96626.06;5038284;28;20233;-71
2022/09/19 10:10:43;;;;;;;9.53;2.40;;;;;;;12.09;92.97;96619.97;5038310;28;20719;-71
2022/09/19 10:13:21;;;;;;;3.20;1.60;;;;;;;12.10;90.06;96624.25;5038762;28;20204;-71
2022/09/19 10:15:54;;;;;;;3.60;1.83;;;;;;;12.13;91.17;96623.91;5039367;28;21068;-71
2022/09/19 10:18:24;;;;;;;1.63;1.20;;;;;;;11.94;90.02;96627.00;5038480;28;20221;-71
2022/09/19 10:20:54;;;;;;;5.87;1.30;;;;;;;11.98;90.37;96630.97;5037525;28;20205;-71
2022/09/19 10:23:24;;;;;;;5.07;1.80;;;;;;;12.01;91.96;96633.25;5038427;28;20221;-70
2022/09/19 10:25:52;;;;;;;2.30;1.53;;;;;;;11.94;91.03;96634.91;5039146;28;20665;-71
2022/09/19 10:28:25;;;;;;;4.00;2.70;;;;;;;12.08;93.01;96634.16;5038635;28;20221;-71
2022/09/19 10:30:58;;;;;;;6.10;1.20;;;;;;;12.00;91.62;96642.97;5039397;28;20197;-70
2022/09/19 10:33:28;;;;;;;5.70;1.23;;;;;;;11.84;90.54;96632.53;5038124;28;20231;-69
2022/09/19 10:35:58;;;;;;;4.33;1.30;;;;;;;11.88;91.80;96638.28;5039214;28;20605;-70
2022/09/19 10:38:26;;;;;;;5.83;1.20;;;;;;;11.93;92.53;96636.75;5047828;28;20255;-70
2022/09/19 10:40:56;;;;;;;2.87;1.43;;;;;;;11.87;91.04;96636.63;5046063;28;20204;-69
2022/09/19 10:43:30;;;;;;;5.03;1.27;;;;;;;12.05;91.61;96634.53;5046854;28;20275;-70
2022/09/19 10:46:05;;;;;;;2.70;1.00;;;;;;;12.06;89.94;96636.19;5045330;28;20276;-69
2022/09/19 10:48:34;;;;;;;3.77;1.43;;;;;;;12.09;90.62;96631.34;5043718;28;20239;-73
2022/09/19 10:51:08;;;;;;;2.47;1.50;;;;;;;12.37;90.18;96635.94;5042218;28;20197;-70
2022/09/19 10:53:38;;;;;;;3.67;1.50;;;;;;;12.54;89.04;96626.03;5046425;28;20209;-70
2022/09/19 10:56:11;;;;;;;7.40;2.37;;;;;;;12.91;88.28;96629.47;5041141;28;20259;-70
2022/09/19 10:58:42;;;;;;;10.57;1.90;;;;;;;13.22;87.37;96628.28;5044997;28;20221;-70
2022/09/19 11:01:21;;;;;;;5.03;1.30;;;;;;;13.48;85.24;96624.16;5043664;28;20201;-70
2022/09/19 11:04:02;;;;;;;1.73;1.10;;;;;;;13.46;86.59;96626.16;5043389;28;20225;-70
2022/09/19 11:06:30;;;;;;;3.63;1.63;;;;;;;13.27;84.70;96625.09;5044519;28;20197;-70
2022/09/19 11:08:58;;;;;;;4.23;1.30;;;;;;;13.19;84.57;96623.34;5043749;28;20225;-70
2022/09/19 11:11:37;;;;;;;2.97;1.10;;;;;;;13.46;82.19;96633.28;5043580;28;20205;-70
2022/09/19 11:14:29;;;;;;;5.45;1.10;;;;;;;13.67;79.68;96628.03;5043474;28;20194;-70
2022/09/19 11:17:50;;;;;;;2.40;1.07;;;;;;;13.62;80.07;96625.94;5045502;28;20210;-70
2022/09/19 11:20:29;;;;;;;2.88;1.08;;;;;;;13.71;80.32;96624.00;5019636;28;20208;-70
2022/09/19 11:23:16;;;;;;;0.93;0.63;;;;;;;13.68;78.44;96619.91;5044836;28;20236;-70
2022/09/19 11:25:49;;;;;;;2.45;0.93;;;;;;;13.64;78.49;96623.91;5046936;28;20213;-70
2022/09/19 11:28:24;;;;;;;4.20;1.30;;;;;;;13.82;77.03;96624.31;5037328;28;20423;-70
2022/09/19 11:31:05;;;;;;;1.63;0.90;;;;;;;13.93;80.33;96615.91;5037469;28;20211;-70
2022/09/19 11:33:52;;;;;;;0.95;0.70;;;;;;;14.02;75.81;96618.22;5035402;28;20951;-70
2022/09/19 11:36:29;;;;;;;1.33;0.70;;;;;;;13.99;76.46;96617.81;5036447;28;20204;-70
2022/09/19 11:39:03;;;;;;;5.03;1.10;;;;;;;14.00;75.37;96619.41;5035616;28;20316;-70
2022/09/19 11:41:41;;;;;;;1.80;1.10;;;;;;;13.86;77.26;96612.38;5036964;28;20262;-69
2022/09/19 11:44:40;;;;;;;4.18;1.25;;;;;;;13.83;79.76;96612.72;5036259;28;20209;-70
2022/09/19 11:47:22;;;;;;;1.88;0.93;;;;;;;13.67;78.69;96607.69;5036550;28;20204;-70
2022/09/19 11:50:04;;;;;;;1.40;0.90;;;;;;;13.74;78.54;96610.38;5036441;28;20239;-69
2022/09/19 11:52:43;;;;;;;4.40;1.30;;;;;;;13.74;79.75;96605.91;5035160;28;20288;-70
2022/09/19 11:55:21;;;;;;;1.58;1.00;;;;;;;13.40;80.87;96611.03;5036700;28;20696;-70
2022/09/19 11:57:55;;;;;;;0.88;0.50;;;;;;;13.49;81.31;96609.91;5036215;28;20563;-70
2022/09/19 12:00:26;;;;;;;3.88;1.13;;;;;;;13.59;79.23;96613.09;5037231;28;20261;-69
2022/09/19 12:03:30;;;;;;;2.13;0.90;;;;;;;13.71;78.59;96601.00;5035806;28;20197;-69
2022/09/19 12:06:08;;;;;;;3.22;0.98;;;;;;;13.69;78.96;96605.63;5026966;28;20204;-70
2022/09/19 12:08:52;;;;;;;6.57;1.25;;;;;;;13.88;80.09;96598.94;5036295;28;20720;-69